Time;durP1;ratioP1;P1;durP2;ratioP2;P2;SDS_P1;SDS_P2;PMS_P1;PMS_P2;Temp;Humidity;BMP_temperature;BMP_pressure;BME280_temperature;BME280_humidity;BME280_pressure;Samples;Min_cycle;Max_cycle;Signal;HPM_P1;HPM_P2
2020/12/09 00:01:41;;;;;;;21.25;14.73;;;2.00;99.90;;;;;;5022427;28;20122;-66
2020/12/09 00:04:08;;;;;;;22.05;15.23;;;2.00;99.90;;;;;;5027217;28;20121;-72
2020/12/09 00:06:38;;;;;;;22.25;15.52;;;2.00;99.90;;;;;;5026102;28;20046;-67
2020/12/09 00:09:06;;;;;;;22.95;14.55;;;2.00;99.90;;;;;;5026237;28;20037;-65
2020/12/09 00:11:33;;;;;;;21.65;15.00;;;2.00;99.90;;;;;;5024812;28;20045;-68
2020/12/09 00:13:59;;;;;;;23.23;14.70;;;2.00;99.90;;;;;;5027346;28;20114;-66
2020/12/09 00:16:26;;;;;;;22.65;14.75;;;2.00;99.90;;;;;;5023106;28;20040;-67
2020/12/09 00:18:53;;;;;;;19.95;13.20;;;2.00;99.90;;;;;;5030772;28;20068;-71
2020/12/09 00:21:21;;;;;;;25.83;16.92;;;2.00;99.90;;;;;;5023441;28;20052;-67
2020/12/09 00:23:49;;;;;;;22.77;14.23;;;2.00;99.90;;;;;;5025973;28;20136;-66
2020/12/09 00:26:23;;;;;;;22.52;15.52;;;2.00;99.90;;;;;;5025316;28;20151;-69
2020/12/09 00:28:52;;;;;;;26.70;17.17;;;2.00;99.90;;;;;;5029650;28;20053;-72
2020/12/09 00:31:21;;;;;;;26.02;17.52;;;2.00;99.90;;;;;;5024209;28;20127;-71
2020/12/09 00:33:49;;;;;;;28.60;18.65;;;2.00;99.90;;;;;;5027952;28;20054;-67
2020/12/09 00:36:20;;;;;;;26.30;16.10;;;2.10;99.90;;;;;;5023843;28;20207;-65
2020/12/09 00:38:48;;;;;;;25.58;18.25;;;2.00;99.90;;;;;;5025765;28;20053;-67
2020/12/09 00:41:24;;;;;;;23.55;18.13;;;2.00;99.90;;;;;;5023329;28;20592;-68
2020/12/09 00:43:51;;;;;;;32.17;19.83;;;2.00;99.90;;;;;;5028267;28;20081;-71
2020/12/09 00:46:24;;;;;;;30.45;19.88;;;2.00;99.90;;;;;;5025600;28;20132;-69
2020/12/09 00:48:56;;;;;;;31.60;21.88;;;2.00;99.90;;;;;;5059506;28;20488;-72
2020/12/09 00:51:26;;;;;;;30.85;22.02;;;2.00;99.90;;;;;;5023442;28;20049;-71
2020/12/09 00:53:55;;;;;;;31.90;20.45;;;2.10;99.90;;;;;;5030155;28;20045;-67
2020/12/09 00:56:26;;;;;;;39.90;25.05;;;2.10;99.90;;;;;;5023025;28;20559;-68
2020/12/09 00:58:56;;;;;;;29.98;17.23;;;2.00;99.90;;;;;;5034096;28;20470;-64
2020/12/09 01:01:24;;;;;;;36.13;21.20;;;2.00;99.90;;;;;;5025164;28;20049;-70
2020/12/09 01:03:57;;;;;;;35.03;22.35;;;2.00;99.90;;;;;;5028366;28;20128;-66
2020/12/09 01:06:24;;;;;;;34.67;21.73;;;2.10;99.90;;;;;;5024244;28;20743;-71
2020/12/09 01:08:50;;;;;;;35.75;23.67;;;2.10;99.90;;;;;;5029571;28;20041;-68
2020/12/09 01:11:21;;;;;;;36.85;23.73;;;2.10;99.90;;;;;;5020360;28;21234;-68
2020/12/09 01:13:48;;;;;;;38.33;22.55;;;2.00;99.90;;;;;;5022906;28;20045;-67
2020/12/09 01:16:15;;;;;;;41.10;23.92;;;2.00;99.90;;;;;;5022129;28;20072;-69
2020/12/09 01:18:42;;;;;;;38.03;23.20;;;2.00;99.90;;;;;;5029300;28;20138;-68
2020/12/09 01:21:08;;;;;;;41.80;25.90;;;2.00;99.90;;;;;;5024366;28;20361;-71
2020/12/09 01:23:35;;;;;;;37.80;25.20;;;2.00;99.90;;;;;;5026516;28;20128;-66
2020/12/09 01:26:01;;;;;;;38.20;24.42;;;2.00;99.90;;;;;;5022766;28;20053;-72
2020/12/09 01:28:28;;;;;;;39.67;25.75;;;2.00;99.90;;;;;;5025617;28;20476;-69
2020/12/09 01:30:55;;;;;;;40.22;25.52;;;2.00;99.90;;;;;;5026861;28;20481;-67
2020/12/09 01:33:21;;;;;;;41.53;25.05;;;2.10;99.90;;;;;;5023561;28;20081;-64
2020/12/09 01:35:47;;;;;;;40.38;25.25;;;2.00;99.90;;;;;;5022972;28;20050;-67
2020/12/09 01:38:14;;;;;;;42.92;28.02;;;2.10;99.90;;;;;;5023335;28;20061;-65
2020/12/09 01:40:41;;;;;;;38.65;23.38;;;2.00;99.90;;;;;;5026918;28;20042;-69
2020/12/09 01:43:07;;;;;;;42.00;24.95;;;2.10;99.90;;;;;;5024871;28;20077;-67
2020/12/09 01:45:34;;;;;;;39.22;25.83;;;2.10;99.90;;;;;;5024529;28;20095;-65
2020/12/09 01:48:00;;;;;;;35.65;24.27;;;2.10;99.90;;;;;;5023606;28;20182;-67
2020/12/09 01:50:27;;;;;;;38.42;23.95;;;2.10;99.90;;;;;;5027117;28;20421;-67
2020/12/09 01:52:54;;;;;;;38.80;24.02;;;2.10;99.90;;;;;;5026026;28;20127;-68
2020/12/09 01:55:20;;;;;;;36.15;23.63;;;2.10;99.90;;;;;;5022867;28;20121;-69
2020/12/09 01:57:47;;;;;;;35.83;24.42;;;2.10;99.90;;;;;;5022940;28;20136;-72
2020/12/09 02:00:13;;;;;;;39.53;26.85;;;2.10;99.90;;;;;;5027474;28;20416;-67
2020/12/09 02:02:40;;;;;;;41.90;24.92;;;2.10;99.90;;;;;;5022015;28;20075;-70
2020/12/09 02:05:08;;;;;;;35.58;23.08;;;2.10;99.90;;;;;;5023811;28;20526;-72
2020/12/09 02:07:34;;;;;;;32.95;22.90;;;2.10;99.90;;;;;;5022453;28;20107;-68
2020/12/09 02:10:03;;;;;;;32.63;25.13;;;2.10;99.90;;;;;;5024278;28;20852;-66
2020/12/09 02:12:32;;;;;;;38.50;26.00;;;2.10;99.90;;;;;;5025684;28;20037;-72
2020/12/09 02:14:59;;;;;;;31.17;20.83;;;2.10;99.90;;;;;;5026405;28;20045;-70
2020/12/09 02:17:25;;;;;;;34.15;20.75;;;2.10;99.90;;;;;;5023212;28;20128;-69
2020/12/09 02:19:52;;;;;;;35.17;21.05;;;2.10;99.90;;;;;;5026594;28;20052;-70
2020/12/09 02:22:18;;;;;;;28.60;20.23;;;2.10;99.90;;;;;;5025739;28;20089;-69
2020/12/09 02:24:45;;;;;;;35.47;20.35;;;2.10;99.90;;;;;;5027823;28;20061;-67
2020/12/09 02:27:11;;;;;;;34.97;21.33;;;2.10;99.90;;;;;;5021796;28;20089;-74
2020/12/09 02:29:38;;;;;;;30.52;18.88;;;2.10;99.90;;;;;;5023542;28;20678;-72
2020/12/09 02:32:04;;;;;;;31.83;19.27;;;2.20;99.90;;;;;;5018586;28;20673;-72
2020/12/09 02:34:30;;;;;;;26.63;17.88;;;2.20;99.90;;;;;;5025738;28;20686;-73
2020/12/09 02:36:57;;;;;;;26.83;18.98;;;2.20;99.90;;;;;;5019950;28;20152;-65
2020/12/09 02:39:37;;;;;;;30.95;19.95;;;2.20;99.90;;;;;;5029798;28;20057;-69
2020/12/09 02:42:05;;;;;;;30.75;18.88;;;2.20;99.90;;;;;;5019387;28;20053;-72
2020/12/09 02:44:32;;;;;;;25.33;17.73;;;2.10;99.90;;;;;;5025214;28;20057;-67
2020/12/09 02:46:59;;;;;;;27.92;18.83;;;2.20;99.90;;;;;;5020345;28;20049;-66
2020/12/09 02:49:26;;;;;;;25.42;16.75;;;2.10;99.90;;;;;;5028129;28;20064;-70
2020/12/09 02:51:53;;;;;;;28.27;16.75;;;2.10;99.90;;;;;;5019040;28;20214;-66
2020/12/09 02:54:20;;;;;;;24.77;18.67;;;2.10;99.90;;;;;;5023932;28;20053;-73
2020/12/09 02:56:46;;;;;;;32.38;17.50;;;2.10;99.90;;;;;;5025495;28;20149;-72
2020/12/09 02:59:14;;;;;;;26.95;17.95;;;2.10;99.90;;;;;;5022628;28;20476;-72
2020/12/09 03:01:40;;;;;;;25.63;15.60;;;2.10;99.90;;;;;;5023700;28;20142;-68
2020/12/09 03:04:07;;;;;;;25.92;17.45;;;2.20;99.90;;;;;;5026520;28;20051;-67
2020/12/09 03:06:34;;;;;;;24.70;16.60;;;2.20;99.90;;;;;;5022316;28;20186;-69
2020/12/09 03:09:01;;;;;;;25.80;17.25;;;2.20;99.90;;;;;;5022871;28;20104;-64
2020/12/09 03:11:28;;;;;;;21.15;15.70;;;2.20;99.90;;;;;;5027281;28;20539;-69
2020/12/09 03:13:54;;;;;;;29.40;17.63;;;2.20;99.90;;;;;;5021972;28;21043;-71
2020/12/09 03:16:21;;;;;;;25.98;16.05;;;2.20;99.90;;;;;;5025908;28;20048;-66
2020/12/09 03:18:47;;;;;;;23.42;16.13;;;2.20;99.90;;;;;;5022304;28;20056;-69
2020/12/09 03:21:14;;;;;;;29.52;18.10;;;2.20;99.90;;;;;;5026387;28;20049;-73
2020/12/09 03:23:41;;;;;;;27.95;18.02;;;2.20;99.90;;;;;;5020684;28;20053;-72
2020/12/09 03:26:07;;;;;;;29.27;16.88;;;2.20;99.90;;;;;;5025444;28;20076;-67
2020/12/09 03:28:35;;;;;;;21.05;17.20;;;2.20;99.90;;;;;;5022673;28;20633;-71
2020/12/09 03:31:05;;;;;;;26.80;17.75;;;2.20;99.90;;;;;;5015328;28;20164;-70
2020/12/09 03:33:32;;;;;;;;;;;2.20;99.90;;;;;;5024697;28;20421;-68
2020/12/09 03:36:00;;;;;;;29.50;15.90;;;2.20;99.90;;;;;;5023892;28;19921;-66
2020/12/09 03:38:26;;;;;;;23.52;17.77;;;2.20;99.90;;;;;;5021425;28;20061;-69
2020/12/09 03:40:53;;;;;;;22.92;16.98;;;2.20;99.90;;;;;;5019503;28;20081;-74
2020/12/09 03:43:19;;;;;;;26.00;16.33;;;2.20;99.90;;;;;;5022309;28;20064;-71
2020/12/09 03:45:46;;;;;;;23.50;16.60;;;2.20;99.90;;;;;;5020083;28;20132;-72
2020/12/09 03:48:12;;;;;;;21.85;18.85;;;2.20;99.90;;;;;;5022959;28;20046;-71
2020/12/09 03:50:39;;;;;;;26.58;16.50;;;2.20;99.90;;;;;;5023021;28;20222;-70
2020/12/09 03:53:05;;;;;;;26.13;15.50;;;2.20;99.90;;;;;;5022362;28;20448;-68
2020/12/09 03:55:32;;;;;;;27.42;17.60;;;2.20;99.90;;;;;;5019793;28;20091;-72
2020/12/09 03:58:00;;;;;;;26.85;15.68;;;2.20;99.90;;;;;;5022097;28;20064;-68
2020/12/09 04:00:28;;;;;;;25.85;17.77;;;2.20;99.90;;;;;;5018590;28;20045;-66
2020/12/09 04:02:55;;;;;;;24.42;15.40;;;2.20;99.90;;;;;;5022429;28;20071;-69
2020/12/09 04:05:21;;;;;;;24.02;15.65;;;2.20;99.90;;;;;;5021552;28;20158;-72
2020/12/09 04:07:48;;;;;;;25.88;16.90;;;2.20;99.90;;;;;;5017634;28;20756;-71
2020/12/09 04:10:14;;;;;;;21.73;16.65;;;2.20;99.90;;;;;;5025377;28;20062;-71
2020/12/09 04:12:41;;;;;;;22.05;16.33;;;2.20;99.90;;;;;;5020445;28;20041;-65
2020/12/09 04:15:07;;;;;;;25.00;18.00;;;2.20;99.90;;;;;;5024597;28;20643;-69
2020/12/09 04:17:34;;;;;;;23.63;15.77;;;2.20;99.90;;;;;;5018923;28;20522;-72
2020/12/09 04:20:00;;;;;;;21.35;15.65;;;2.20;99.90;;;;;;5024924;28;20138;-71
2020/12/09 04:22:27;;;;;;;24.38;15.20;;;2.20;99.90;;;;;;5019696;28;20049;-68
2020/12/09 04:24:53;;;;;;;24.55;16.15;;;2.20;99.90;;;;;;5027178;28;20073;-70
2020/12/09 04:27:20;;;;;;;22.67;15.65;;;2.20;99.90;;;;;;5019980;28;20060;-66
2020/12/09 04:29:46;;;;;;;25.08;16.65;;;2.20;99.90;;;;;;5022237;28;20191;-65
2020/12/09 04:32:13;;;;;;;23.98;16.52;;;2.20;99.90;;;;;;5026792;28;20041;-70
2020/12/09 04:34:39;;;;;;;23.23;15.82;;;2.20;99.90;;;;;;5022845;28;20045;-72
2020/12/09 04:37:08;;;;;;;23.45;16.17;;;2.20;99.90;;;;;;5024325;28;20408;-66
2020/12/09 04:39:35;;;;;;;20.50;13.65;;;2.20;99.90;;;;;;5018598;28;20060;-72
2020/12/09 04:42:02;;;;;;;22.13;13.82;;;2.20;99.90;;;;;;5020455;28;20065;-68
2020/12/09 04:44:29;;;;;;;24.20;16.23;;;2.20;99.90;;;;;;5021607;28;20055;-72
2020/12/09 04:47:04;;;;;;;23.70;17.48;;;2.20;99.90;;;;;;5023006;28;20057;-67
2020/12/09 04:49:45;;;;;;;20.48;14.48;;;2.20;99.90;;;;;;5022794;28;20120;-68
2020/12/09 04:52:23;;;;;;;19.15;13.88;;;2.10;99.90;;;;;;5027412;28;20099;-67
2020/12/09 04:54:53;;;;;;;23.77;16.38;;;2.10;99.90;;;;;;5021768;28;20049;-69
2020/12/09 04:57:37;;;;;;;21.40;13.18;;;2.20;99.90;;;;;;5029054;28;20052;-67
2020/12/09 05:00:13;;;;;;;21.50;15.38;;;2.20;99.90;;;;;;5021873;28;20136;-68
2020/12/09 05:02:49;;;;;;;18.67;13.07;;;2.20;99.90;;;;;;5029433;28;20056;-69
2020/12/09 05:05:18;;;;;;;27.33;16.08;;;2.20;99.90;;;;;;5024285;28;20071;-65
2020/12/09 05:07:48;;;;;;;24.33;14.63;;;2.20;99.90;;;;;;5028491;28;20136;-73
2020/12/09 05:10:20;;;;;;;19.55;14.15;;;2.20;99.90;;;;;;5024958;28;20369;-70
2020/12/09 05:12:49;;;;;;;22.13;14.02;;;2.20;99.90;;;;;;5030439;28;20059;-68
2020/12/09 05:15:20;;;;;;;23.08;14.98;;;2.20;99.90;;;;;;5023328;28;20052;-71
2020/12/09 05:17:49;;;;;;;23.38;16.63;;;2.10;99.90;;;;;;5024591;28;20049;-69
2020/12/09 05:20:25;;;;;;;29.65;17.67;;;2.20;99.90;;;;;;5026459;28;20052;-67
2020/12/09 05:22:55;;;;;;;28.55;17.38;;;2.10;99.90;;;;;;5025078;28;20135;-66
2020/12/09 05:25:23;;;;;;;21.77;18.35;;;2.10;99.90;;;;;;5027774;28;20054;-69
2020/12/09 05:27:51;;;;;;;24.30;17.40;;;2.10;99.90;;;;;;5024107;28;20049;-66
2020/12/09 05:30:42;;;;;;;30.10;19.13;;;2.10;99.90;;;;;;5021963;28;20045;-69
2020/12/09 05:33:12;;;;;;;26.52;17.48;;;2.10;99.90;;;;;;5022373;28;21165;-72
2020/12/09 05:35:39;;;;;;;27.50;18.03;;;2.10;99.90;;;;;;5024849;28;20054;-69
2020/12/09 05:38:15;;;;;;;31.35;20.02;;;2.10;99.90;;;;;;5027093;28;20073;-69
2020/12/09 05:40:44;;;;;;;31.65;19.17;;;2.10;99.90;;;;;;5014778;28;20531;-69
2020/12/09 05:43:16;;;;;;;29.00;20.02;;;2.10;99.90;;;;;;5022311;28;20045;-72
2020/12/09 05:45:43;;;;;;;29.52;20.45;;;2.10;99.90;;;;;;5022655;28;20049;-73
2020/12/09 05:48:24;;;;;;;28.30;19.35;;;2.10;99.90;;;;;;5023222;28;20052;-67
2020/12/09 05:50:55;;;;;;;37.53;20.27;;;2.10;99.90;;;;;;5030960;28;20125;-68
2020/12/09 05:53:24;;;;;;;28.77;17.55;;;2.10;99.90;;;;;;5017484;28;20037;-65
2020/12/09 05:55:54;;;;;;;31.42;20.83;;;2.10;99.90;;;;;;5022535;28;20068;-69
2020/12/09 05:58:28;;;;;;;30.70;20.40;;;2.10;99.90;;;;;;5021241;28;20048;-72
2020/12/09 06:01:21;;;;;;;28.00;19.20;;;2.10;99.90;;;;;;5024036;28;20057;-68
2020/12/09 06:03:56;;;;;;;32.85;20.45;;;2.10;99.90;;;;;;5015750;28;20063;-68
2020/12/09 06:06:23;;;;;;;31.30;21.23;;;2.20;99.90;;;;;;5023574;28;20041;-68
2020/12/09 06:08:57;;;;;;;28.95;19.15;;;2.10;99.90;;;;;;5021736;28;20118;-69
2020/12/09 06:11:29;;;;;;;30.92;20.77;;;2.10;99.90;;;;;;5021445;28;20107;-69
2020/12/09 06:13:57;;;;;;;32.13;21.17;;;2.10;99.90;;;;;;5019447;28;20045;-69
2020/12/09 06:16:24;;;;;;;28.23;19.40;;;2.10;99.90;;;;;;5027050;28;20057;-71
2020/12/09 06:18:55;;;;;;;26.85;20.25;;;2.10;99.90;;;;;;5024537;28;20044;-70
2020/12/09 06:21:25;;;;;;;28.98;19.33;;;2.10;99.90;;;;;;5030741;28;20077;-68
2020/12/09 06:23:52;;;;;;;27.48;18.95;;;2.10;99.90;;;;;;5026943;28;20060;-68
2020/12/09 06:26:18;;;;;;;27.67;18.38;;;2.10;99.90;;;;;;5025542;28;21093;-71
2020/12/09 06:28:47;;;;;;;31.90;21.13;;;2.10;99.90;;;;;;5030232;28;20049;-71
2020/12/09 06:31:16;;;;;;;29.70;19.30;;;2.10;99.90;;;;;;5022288;28;20858;-69
2020/12/09 06:33:46;;;;;;;31.77;20.08;;;2.10;99.90;;;;;;5027319;28;20160;-67
2020/12/09 06:36:27;;;;;;;28.88;20.67;;;2.10;99.90;;;;;;5026925;28;20433;-68
2020/12/09 06:39:13;;;;;;;28.50;20.08;;;2.10;99.90;;;;;;5020215;28;20380;-74
2020/12/09 06:41:59;;;;;;;28.88;18.95;;;2.00;99.90;;;;;;5020666;28;20044;-76
2020/12/09 06:44:30;;;;;;;31.83;20.52;;;2.10;99.90;;;;;;5016509;28;20556;-67
2020/12/09 06:46:59;;;;;;;;;;;2.10;99.90;;;;;;5023859;28;20042;-66
2020/12/09 06:49:30;;;;;;;24.55;15.15;;;2.10;99.90;;;;;;5026212;28;19970;-66
2020/12/09 06:51:57;;;;;;;26.92;16.48;;;2.10;99.90;;;;;;5019987;28;20179;-66
2020/12/09 06:54:50;;;;;;;30.08;20.52;;;2.10;99.90;;;;;;5029058;28;20740;-73
2020/12/09 06:57:38;;;;;;;27.50;18.90;;;2.10;99.90;;;;;;5018163;28;20163;-67
2020/12/09 07:00:20;;;;;;;37.05;23.17;;;2.10;99.90;;;;;;5026384;28;20064;-68
2020/12/09 07:02:51;;;;;;;38.50;21.98;;;2.10;99.90;;;;;;5024061;28;20460;-69
2020/12/09 07:05:26;;;;;;;33.67;23.05;;;2.00;99.90;;;;;;5029977;28;20052;-68
2020/12/09 07:07:59;;;;;;;33.80;22.73;;;2.00;99.90;;;;;;5022156;28;20049;-69
2020/12/09 07:10:28;;;;;;;34.47;21.05;;;2.10;99.90;;;;;;5025881;28;20045;-72
2020/12/09 07:13:05;;;;;;;32.05;21.88;;;2.10;99.90;;;;;;5019547;28;20136;-69
2020/12/09 07:15:33;;;;;;;30.73;21.58;;;2.10;99.90;;;;;;5031225;28;20120;-69
2020/12/09 07:17:59;;;;;;;46.97;22.25;;;2.10;99.90;;;;;;5021448;28;20603;-72
2020/12/09 07:20:26;;;;;;;34.40;22.02;;;2.10;99.90;;;;;;5022864;28;20080;-69
2020/12/09 07:22:52;;;;;;;35.60;23.75;;;2.10;99.90;;;;;;5019829;28;20067;-67
2020/12/09 07:25:20;;;;;;;38.00;20.80;;;2.00;99.90;;;;;;5024341;28;20464;-68
2020/12/09 07:27:47;;;;;;;30.92;21.67;;;2.10;99.90;;;;;;5019190;28;20405;-65
2020/12/09 07:30:15;;;;;;;35.03;22.77;;;2.10;99.90;;;;;;5025193;28;20056;-74
2020/12/09 07:32:41;;;;;;;37.53;23.15;;;2.10;99.90;;;;;;5022560;28;20099;-68
2020/12/09 07:35:12;;;;;;;33.00;21.85;;;2.10;99.90;;;;;;5023156;28;20144;-65
2020/12/09 07:37:42;;;;;;;35.92;24.63;;;2.10;99.90;;;;;;5019061;28;20138;-72
2020/12/09 07:40:16;;;;;;;35.88;23.38;;;2.10;99.90;;;;;;5024274;28;20053;-70
2020/12/09 07:42:42;;;;;;;36.13;22.75;;;2.10;99.90;;;;;;5024396;28;20167;-66
2020/12/09 07:45:16;;;;;;;38.03;22.90;;;2.10;99.90;;;;;;5024762;28;20057;-72
2020/12/09 07:47:43;;;;;;;36.03;22.92;;;2.10;99.90;;;;;;5025717;28;20461;-69
2020/12/09 07:50:11;;;;;;;36.67;21.92;;;2.10;99.90;;;;;;5025394;28;20044;-67
2020/12/09 07:52:40;;;;;;;34.22;23.40;;;2.10;99.90;;;;;;5023472;28;20045;-68
2020/12/09 07:55:15;;;;;;;36.90;22.38;;;2.10;99.90;;;;;;5024817;28;20452;-73
2020/12/09 07:57:41;;;;;;;35.55;22.85;;;2.10;99.90;;;;;;5024821;28;20052;-69
2020/12/09 08:00:11;;;;;;;36.47;24.23;;;2.10;99.90;;;;;;5024909;28;20126;-66
2020/12/09 08:02:42;;;;;;;38.90;25.15;;;2.10;99.90;;;;;;5023579;28;20059;-64
2020/12/09 08:05:27;;;;;;;38.45;22.75;;;2.10;99.90;;;;;;5024165;28;20123;-68
2020/12/09 08:07:58;;;;;;;32.60;21.38;;;2.10;99.90;;;;;;5023671;28;21061;-70
2020/12/09 08:10:30;;;;;;;41.00;24.25;;;2.10;99.90;;;;;;5022122;28;20423;-75
2020/12/09 08:13:22;;;;;;;39.45;23.17;;;2.10;99.90;;;;;;5025229;28;20044;-67
2020/12/09 08:16:13;;;;;;;34.30;22.20;;;2.20;99.90;;;;;;5013492;28;20049;-68
2020/12/09 08:18:42;;;;;;;41.00;22.90;;;2.20;99.90;;;;;;5024164;28;20045;-69
2020/12/09 08:21:09;;;;;;;37.50;24.58;;;2.20;99.90;;;;;;5027613;28;20060;-68
2020/12/09 08:23:46;;;;;;;36.30;23.63;;;2.20;99.90;;;;;;5024321;28;20041;-68
2020/12/09 08:26:30;;;;;;;41.85;26.02;;;2.20;99.90;;;;;;5028423;28;20045;-75
2020/12/09 08:28:57;;;;;;;41.20;23.95;;;2.20;99.90;;;;;;5031427;28;20396;-74
2020/12/09 08:31:24;;;;;;;36.20;23.30;;;2.20;99.90;;;;;;5026612;28;20049;-70
2020/12/09 08:33:51;;;;;;;39.92;24.45;;;2.20;99.90;;;;;;5029235;28;20052;-68
2020/12/09 08:36:21;;;;;;;34.83;22.13;;;2.20;99.90;;;;;;5035125;28;20693;-70
2020/12/09 08:38:57;;;;;;;36.75;21.95;;;2.20;99.90;;;;;;5026577;28;20322;-68
2020/12/09 08:41:28;;;;;;;40.05;23.95;;;2.20;99.90;;;;;;5033831;28;20040;-69
2020/12/09 08:43:57;;;;;;;35.92;24.48;;;2.30;99.90;;;;;;5025137;28;20464;-71
2020/12/09 08:46:24;;;;;;;33.80;21.23;;;2.20;99.90;;;;;;5034877;28;20115;-72
2020/12/09 08:48:52;;;;;;;49.97;24.63;;;2.20;99.90;;;;;;5029603;28;20041;-67
2020/12/09 08:51:23;;;;;;;37.28;21.02;;;2.30;99.90;;;;;;5025459;28;20125;-75
2020/12/09 08:53:50;;;;;;;37.05;22.67;;;2.30;99.90;;;;;;5022428;28;20030;-68
2020/12/09 08:56:23;;;;;;;36.08;22.40;;;2.30;99.90;;;;;;5027152;28;20492;-71
2020/12/09 08:58:49;;;;;;;36.33;22.02;;;2.30;99.90;;;;;;5026618;28;20139;-72
2020/12/09 09:01:16;;;;;;;28.40;20.15;;;2.30;99.90;;;;;;5028680;28;20053;-67
2020/12/09 09:03:44;;;;;;;33.13;22.77;;;2.30;99.90;;;;;;5027659;28;20535;-67
2020/12/09 09:06:11;;;;;;;34.25;21.70;;;2.30;99.90;;;;;;5029208;28;20864;-71
2020/12/09 09:08:37;;;;;;;33.85;22.13;;;2.30;99.90;;;;;;5023266;28;20568;-65
2020/12/09 09:11:04;;;;;;;36.58;22.75;;;2.30;99.90;;;;;;5027734;28;20088;-68
2020/12/09 09:13:30;;;;;;;36.42;22.52;;;2.30;99.90;;;;;;5030747;28;20094;-67
2020/12/09 09:15:57;;;;;;;37.92;23.60;;;2.30;99.90;;;;;;5026514;28;20426;-75
2020/12/09 09:18:23;;;;;;;34.25;24.52;;;2.40;99.90;;;;;;5034720;28;20052;-68
2020/12/09 09:20:53;;;;;;;32.17;22.38;;;2.30;99.90;;;;;;5024357;28;20049;-65
2020/12/09 09:23:19;;;;;;;41.90;24.25;;;2.40;99.90;;;;;;5029880;28;20068;-67
2020/12/09 09:25:46;;;;;;;34.80;20.48;;;2.40;99.90;;;;;;5025406;28;20488;-68
2020/12/09 09:28:13;;;;;;;41.40;24.05;;;2.40;99.90;;;;;;5030436;28;20223;-74
2020/12/09 09:30:40;;;;;;;37.83;21.17;;;2.40;99.90;;;;;;5026413;28;20193;-71
2020/12/09 09:33:07;;;;;;;34.85;23.30;;;2.40;99.90;;;;;;5027458;28;20044;-66
2020/12/09 09:35:33;;;;;;;35.03;21.90;;;2.40;99.90;;;;;;5025306;28;20099;-70
2020/12/09 09:38:00;;;;;;;37.50;25.02;;;2.40;99.90;;;;;;5026577;28;20052;-66
2020/12/09 09:40:26;;;;;;;31.08;21.30;;;2.40;99.90;;;;;;5031015;28;20065;-71
2020/12/09 09:42:54;;;;;;;41.05;24.45;;;2.40;99.90;;;;;;5024456;28;20130;-70
2020/12/09 09:45:23;;;;;;;41.00;23.73;;;2.40;99.90;;;;;;5026196;28;20148;-69
2020/12/09 09:47:49;;;;;;;40.20;23.63;;;2.40;99.90;;;;;;5024315;28;20132;-73
2020/12/09 09:50:16;;;;;;;37.72;23.00;;;2.40;99.90;;;;;;5029761;28;20455;-71
2020/12/09 09:52:42;;;;;;;38.33;24.13;;;2.40;99.90;;;;;;5020185;28;20056;-72
2020/12/09 09:55:09;;;;;;;37.83;23.90;;;2.40;99.90;;;;;;5029767;28;20155;-72
2020/12/09 09:57:36;;;;;;;34.95;21.67;;;2.40;99.90;;;;;;5023425;28;20057;-71
2020/12/09 10:00:06;;;;;;;33.92;23.38;;;2.50;99.90;;;;;;5029277;28;20091;-69
2020/12/09 10:02:37;;;;;;;37.20;23.00;;;2.50;99.90;;;;;;5026883;28;20046;-65
2020/12/09 10:05:04;;;;;;;34.05;25.35;;;2.50;99.90;;;;;;5027971;28;20053;-70
2020/12/09 10:07:30;;;;;;;34.78;22.80;;;2.50;99.90;;;;;;5026816;28;20076;-69
2020/12/09 10:10:01;;;;;;;33.28;21.92;;;2.50;99.90;;;;;;5026806;28;20041;-72
2020/12/09 10:12:27;;;;;;;;;;;2.50;99.90;;;;;;5024368;28;20140;-68
2020/12/09 10:14:54;;;;;;;38.63;23.08;;;2.50;99.90;;;;;;5028707;28;19929;-70
2020/12/09 10:17:20;;;;;;;35.20;23.48;;;2.50;99.90;;;;;;5027318;28;20065;-65
2020/12/09 10:19:47;;;;;;;37.67;23.98;;;2.50;99.90;;;;;;5024180;28;20067;-70
2020/12/09 10:22:14;;;;;;;41.95;26.17;;;2.50;99.90;;;;;;5029599;28;20037;-70
2020/12/09 10:24:40;;;;;;;41.50;26.08;;;2.50;99.90;;;;;;5023027;28;20076;-71
2020/12/09 10:27:07;;;;;;;43.03;27.27;;;2.50;99.90;;;;;;5032457;28;20083;-68
2020/12/09 10:29:34;;;;;;;41.67;25.83;;;2.50;99.90;;;;;;5024568;28;20073;-76
2020/12/09 10:32:00;;;;;;;37.20;25.30;;;2.50;99.90;;;;;;5026184;28;20473;-68
2020/12/09 10:34:27;;;;;;;36.63;24.48;;;2.50;99.90;;;;;;5024275;28;20076;-67
2020/12/09 10:36:53;;;;;;;42.05;27.70;;;2.50;99.90;;;;;;5028171;28;20731;-72
2020/12/09 10:39:23;;;;;;;39.30;25.75;;;2.50;99.90;;;;;;5023264;28;20369;-69
2020/12/09 10:41:50;;;;;;;43.90;27.10;;;2.50;99.90;;;;;;5023908;28;20045;-70
2020/12/09 10:44:18;;;;;;;40.92;25.10;;;2.50;99.90;;;;;;5024704;28;20050;-72
2020/12/09 10:46:45;;;;;;;42.63;27.15;;;2.50;99.90;;;;;;5022511;28;20122;-74
2020/12/09 10:49:15;;;;;;;42.33;28.40;;;2.50;99.90;;;;;;5025398;28;20163;-69
2020/12/09 10:51:47;;;;;;;40.08;27.75;;;2.50;99.90;;;;;;5021558;28;20053;-70
2020/12/09 10:54:14;;;;;;;45.63;28.27;;;2.50;99.90;;;;;;5023649;28;20045;-71
2020/12/09 10:56:41;;;;;;;44.78;27.80;;;2.50;99.90;;;;;;5025864;28;20061;-73
2020/12/09 10:59:15;;;;;;;46.17;29.05;;;2.50;99.90;;;;;;5025053;28;20053;-68
2020/12/09 11:01:43;;;;;;;41.60;26.15;;;2.50;99.90;;;;;;5028656;28;20678;-67
2020/12/09 11:04:10;;;;;;;44.88;27.15;;;2.60;99.90;;;;;;5024692;28;20060;-67
2020/12/09 11:06:38;;;;;;;44.20;26.02;;;2.50;99.90;;;;;;5021714;28;20045;-69
2020/12/09 11:09:06;;;;;;;40.35;25.95;;;2.50;99.90;;;;;;5020323;28;20164;-70
2020/12/09 11:11:34;;;;;;;45.85;26.33;;;2.60;99.90;;;;;;5023588;28;20038;-68
2020/12/09 11:14:02;;;;;;;37.28;24.48;;;2.60;99.90;;;;;;5025199;28;20112;-74
2020/12/09 11:16:31;;;;;;;39.97;26.13;;;2.60;99.90;;;;;;5023014;28;20042;-65
2020/12/09 11:18:58;;;;;;;43.42;27.48;;;2.50;99.90;;;;;;5024247;28;20128;-70
2020/12/09 11:21:25;;;;;;;38.58;25.17;;;2.60;99.90;;;;;;5021296;28;20056;-69
2020/12/09 11:23:52;;;;;;;41.80;24.50;;;2.60;99.90;;;;;;5026775;28;20568;-71
2020/12/09 11:26:20;;;;;;;40.80;25.40;;;2.60;99.90;;;;;;5025781;28;20052;-74
2020/12/09 11:28:47;;;;;;;36.00;23.92;;;2.60;99.90;;;;;;5025179;28;20118;-69
2020/12/09 11:31:18;;;;;;;47.42;27.40;;;2.60;99.90;;;;;;5020448;28;20119;-70
2020/12/09 11:33:44;;;;;;;;;;;2.60;99.90;;;;;;5033135;28;20080;-73
2020/12/09 11:36:10;;;;;;;43.33;24.75;;;2.60;99.90;;;;;;5027056;28;19932;-70
2020/12/09 11:38:37;;;;;;;44.78;27.50;;;2.60;99.90;;;;;;5022841;28;20475;-68
2020/12/09 11:41:03;;;;;;;45.45;28.17;;;2.60;99.90;;;;;;5021869;28;20064;-68
2020/12/09 11:43:30;;;;;;;42.75;28.10;;;2.60;99.90;;;;;;5022807;28;20366;-68
2020/12/09 11:45:59;;;;;;;47.58;28.42;;;2.60;99.90;;;;;;5026088;28;20045;-68
2020/12/09 11:48:26;;;;;;;45.30;27.77;;;2.60;99.90;;;;;;5024551;28;20053;-72
2020/12/09 11:50:53;;;;;;;52.13;29.30;;;2.60;99.90;;;;;;5032438;28;20664;-69
2020/12/09 11:53:19;;;;;;;45.05;27.98;;;2.60;99.90;;;;;;5020869;28;20041;-68
2020/12/09 11:55:46;;;;;;;48.35;30.48;;;2.60;99.90;;;;;;5021116;28;20076;-73
2020/12/09 11:58:14;;;;;;;45.13;26.85;;;2.60;99.90;;;;;;5023191;28;20065;-68
2020/12/09 12:00:40;;;;;;;46.67;29.38;;;2.60;99.90;;;;;;5026417;28;20481;-69
2020/12/09 12:03:07;;;;;;;48.97;29.27;;;2.50;99.90;;;;;;5033401;28;20041;-69
2020/12/09 12:05:35;;;;;;;45.55;27.48;;;2.60;99.90;;;;;;5029604;28;20046;-75
2020/12/09 12:08:06;;;;;;;48.85;28.80;;;2.50;99.90;;;;;;5027824;28;20152;-67
2020/12/09 12:10:33;;;;;;;44.40;29.05;;;2.50;99.90;;;;;;5024907;28;20059;-73
2020/12/09 12:13:00;;;;;;;53.45;28.83;;;2.50;99.90;;;;;;5032782;28;20041;-70
2020/12/09 12:15:27;;;;;;;45.60;30.77;;;2.60;99.90;;;;;;5027072;28;20211;-70
2020/12/09 12:17:53;;;;;;;48.50;30.63;;;2.60;99.90;;;;;;5031517;28;20053;-70
2020/12/09 12:20:19;;;;;;;52.03;31.23;;;2.60;99.90;;;;;;5025975;28;20048;-72
2020/12/09 12:22:46;;;;;;;55.28;31.25;;;2.60;99.90;;;;;;5032420;28;20445;-75
2020/12/09 12:25:12;;;;;;;49.30;29.75;;;2.60;99.90;;;;;;5026869;28;20449;-65
2020/12/09 12:27:39;;;;;;;49.47;29.92;;;2.60;99.90;;;;;;5027749;28;20253;-87
2020/12/09 12:30:06;;;;;;;49.38;31.45;;;2.50;99.90;;;;;;5027254;28;20052;-69
2020/12/09 12:32:32;;;;;;;49.33;28.77;;;2.50;99.90;;;;;;5024746;28;20048;-66
2020/12/09 12:34:58;;;;;;;45.97;30.88;;;2.50;99.90;;;;;;5028761;28;20049;-66
2020/12/09 12:37:25;;;;;;;47.85;30.65;;;2.50;99.90;;;;;;5024383;28;20080;-68
2020/12/09 12:39:51;;;;;;;53.47;30.92;;;2.50;99.90;;;;;;5030755;28;20048;-69
2020/12/09 12:42:18;;;;;;;47.45;28.95;;;2.50;99.90;;;;;;5022326;28;20911;-69
2020/12/09 12:44:45;;;;;;;55.15;33.03;;;2.50;99.90;;;;;;5029259;28;20053;-71
2020/12/09 12:47:11;;;;;;;78.72;43.83;;;2.50;99.90;;;;;;5022848;28;20605;-68